createdAt,value
2022-11-29T00:01:04.276Z,28.75
2022-11-29T00:03:33.199Z,25.77
2022-11-29T00:06:08.086Z,24.70
2022-11-29T00:08:35.181Z,24.95
2022-11-29T00:11:41.213Z,24.05
2022-11-29T00:14:12.086Z,25.70
2022-11-29T00:16:41.070Z,26.80
2022-11-29T00:19:08.956Z,25.27
2022-11-29T00:21:35.826Z,26.10
2022-11-29T00:24:02.791Z,24.80
2022-11-29T00:26:29.511Z,24.75
2022-11-29T00:28:56.045Z,28.05
2022-11-29T00:31:25.283Z,25.80
2022-11-29T00:33:52.565Z,24.40
2022-11-29T00:36:19.984Z,24.58
2022-11-29T00:38:46.751Z,26.73
2022-11-29T00:41:13.433Z,24.65
2022-11-29T00:43:40.406Z,21.92
2022-11-29T00:46:07.859Z,21.88
2022-11-29T00:48:35.022Z,24.27
2022-11-29T00:51:02.517Z,23.20
2022-11-29T00:53:29.306Z,22.98
2022-11-29T00:55:56.310Z,20.42
2022-11-29T00:58:23.324Z,22.42
2022-11-29T01:00:50.230Z,20.80
2022-11-29T01:03:17.785Z,20.33
2022-11-29T01:05:45.508Z,20.02
2022-11-29T01:08:12.418Z,21.42
2022-11-29T01:10:39.415Z,22.83
2022-11-29T01:13:06.765Z,21.92
2022-11-29T01:15:33.482Z,23.20
2022-11-29T01:18:00.282Z,21.13
2022-11-29T01:20:27.863Z,22.45
2022-11-29T01:22:54.717Z,24.75
2022-11-29T01:25:21.523Z,24.38
2022-11-29T01:27:48.189Z,23.40
2022-11-29T01:30:15.128Z,22.40
2022-11-29T01:32:41.827Z,20.88
2022-11-29T01:35:08.851Z,22.25
2022-11-29T01:37:35.606Z,23.35
2022-11-29T01:40:02.627Z,22.05
2022-11-29T01:42:29.258Z,21.30
2022-11-29T01:45:05.480Z,21.00
2022-11-29T01:47:32.939Z,22.80
2022-11-29T01:50:00.188Z,24.52
2022-11-29T01:52:31.420Z,22.00
2022-11-29T01:55:01.835Z,22.90
2022-11-29T01:57:29.665Z,23.10
2022-11-29T02:00:00.860Z,22.02
2022-11-29T02:02:32.711Z,20.50
2022-11-29T02:05:02.699Z,23.45
2022-11-29T02:07:29.698Z,22.02
2022-11-29T02:09:56.577Z,19.98
2022-11-29T02:12:55.750Z,19.00
2022-11-29T02:15:28.822Z,21.65
2022-11-29T02:18:11.759Z,22.10
2022-11-29T02:21:12.528Z,20.98
2022-11-29T02:24:02.049Z,18.85
2022-11-29T02:26:44.212Z,21.75
2022-11-29T02:29:32.093Z,19.27
2022-11-29T02:32:29.676Z,19.27
2022-11-29T02:35:27.051Z,21.52
2022-11-29T02:38:18.045Z,19.30
2022-11-29T02:41:33.358Z,21.55
2022-11-29T02:44:24.825Z,23.15
2022-11-29T02:47:26.281Z,24.58
2022-11-29T02:50:38.892Z,26.20
2022-11-29T02:53:35.798Z,28.58
2022-11-29T02:56:20.739Z,25.30
2022-11-29T02:58:54.543Z,29.63
2022-11-29T03:01:30.316Z,94.15
2022-11-29T03:04:13.989Z,28.40
2022-11-29T03:07:05.426Z,27.23
2022-11-29T03:09:48.800Z,25.40
2022-11-29T03:12:21.177Z,23.92
2022-11-29T03:14:57.632Z,21.50
2022-11-29T03:17:38.040Z,22.52
2022-11-29T03:20:26.007Z,21.42
2022-11-29T03:23:19.814Z,20.48
2022-11-29T03:25:57.088Z,21.10
2022-11-29T03:28:31.213Z,21.63
2022-11-29T03:34:10.670Z,19.25
2022-11-29T03:37:14.718Z,18.23
2022-11-29T03:39:44.420Z,16.88
2022-11-29T03:42:49.692Z,17.33
2022-11-29T03:45:34.942Z,15.13
2022-11-29T03:48:15.982Z,17.63
2022-11-29T03:50:56.697Z,16.50
2022-11-29T03:53:36.087Z,17.10
2022-11-29T03:56:23.267Z,16.00
2022-11-29T03:59:27.551Z,17.15
2022-11-29T04:02:36.393Z,18.70
2022-11-29T04:05:27.410Z,18.17
2022-11-29T04:07:57.420Z,17.88
2022-11-29T04:10:47.464Z,18.42
2022-11-29T04:13:42.305Z,16.75
2022-11-29T04:19:04.031Z,16.98
2022-11-29T04:21:45.538Z,17.10
2022-11-29T04:24:36.922Z,17.85
2022-11-29T04:27:49.146Z,19.25
2022-11-29T04:30:20.095Z,18.27
2022-11-29T04:32:55.899Z,21.95
2022-11-29T04:35:48.462Z,21.25
2022-11-29T04:38:33.925Z,21.58
2022-11-29T04:41:28.590Z,18.00
2022-11-29T04:44:07.471Z,20.55
2022-11-29T04:46:46.200Z,19.38
2022-11-29T04:49:29.154Z,18.13
2022-11-29T04:52:17.414Z,17.17
2022-11-29T04:55:02.534Z,16.80
2022-11-29T04:57:37.379Z,17.25
2022-11-29T05:00:11.912Z,17.77
2022-11-29T05:02:48.453Z,15.82
2022-11-29T05:05:59.935Z,15.27
2022-11-29T05:08:50.364Z,16.60
2022-11-29T05:11:31.948Z,17.67
2022-11-29T05:14:24.479Z,17.33
2022-11-29T05:16:58.870Z,16.35
2022-11-29T05:19:40.397Z,16.65
2022-11-29T05:22:22.350Z,16.50
2022-11-29T05:25:01.124Z,16.35
2022-11-29T05:27:46.761Z,16.95
2022-11-29T05:30:20.867Z,18.08
2022-11-29T05:35:50.168Z,15.02
2022-11-29T05:38:41.147Z,17.25
2022-11-29T05:41:32.994Z,27.27
2022-11-29T05:44:04.932Z,24.70
2022-11-29T05:46:42.844Z,24.67
2022-11-29T05:49:31.069Z,25.17
2022-11-29T05:52:18.325Z,26.52
2022-11-29T05:54:48.138Z,26.40
2022-11-29T05:57:33.891Z,24.88
2022-11-29T06:00:03.543Z,23.15
2022-11-29T06:02:39.970Z,22.38
2022-11-29T06:05:17.111Z,21.35
2022-11-29T06:08:08.659Z,21.23
2022-11-29T06:10:40.429Z,19.92
2022-11-29T06:13:28.932Z,20.95
2022-11-29T06:16:18.200Z,20.35
2022-11-29T06:19:12.820Z,18.55
2022-11-29T06:22:21.183Z,19.05
2022-11-29T06:25:12.455Z,19.88
2022-11-29T06:28:00.913Z,18.63
2022-11-29T06:30:41.282Z,16.77
2022-11-29T06:33:19.253Z,16.63
2022-11-29T06:35:54.575Z,17.45
2022-11-29T06:38:30.278Z,19.52
2022-11-29T06:41:01.840Z,25.65
2022-11-29T06:43:29.912Z,30.58
2022-11-29T06:46:15.313Z,29.85
2022-11-29T06:49:14.235Z,56.28
2022-11-29T06:51:51.396Z,56.00
2022-11-29T06:54:18.213Z,60.55
2022-11-29T06:57:17.381Z,50.47
2022-11-29T07:00:04.841Z,49.63
2022-11-29T07:02:40.827Z,40.25
2022-11-29T07:05:20.188Z,40.65
2022-11-29T07:07:48.685Z,44.60
2022-11-29T07:10:19.342Z,41.53
2022-11-29T07:12:48.313Z,47.80
2022-11-29T07:15:18.777Z,41.60
2022-11-29T07:18:05.719Z,45.03
2022-11-29T07:20:51.313Z,43.17
2022-11-29T07:23:32.264Z,46.35
2022-11-29T07:26:37.198Z,44.80
2022-11-29T07:29:25.491Z,43.80
2022-11-29T07:32:14.790Z,47.92
2022-11-29T07:34:53.286Z,44.80
2022-11-29T07:37:20.249Z,46.55
2022-11-29T07:40:13.980Z,47.65
2022-11-29T07:42:43.654Z,48.00
2022-11-29T07:45:36.239Z,45.40
2022-11-29T07:48:04.231Z,48.80
2022-11-29T07:50:31.652Z,48.45
2022-11-29T07:53:00.252Z,43.35
2022-11-29T07:55:27.687Z,34.70
2022-11-29T07:57:54.293Z,42.40
2022-11-29T08:00:21.921Z,45.47
2022-11-29T08:02:50.682Z,43.97
2022-11-29T08:05:18.076Z,40.08
2022-11-29T08:07:44.741Z,39.15
2022-11-29T08:10:14.624Z,37.20
2022-11-29T08:12:47.828Z,35.13
2022-11-29T08:15:14.850Z,33.58
2022-11-29T08:17:41.688Z,34.30
2022-11-29T08:20:10.393Z,40.28
2022-11-29T08:22:37.518Z,38.38
2022-11-29T08:25:05.428Z,39.72
2022-11-29T08:27:32.089Z,38.75
2022-11-29T08:29:59.013Z,36.63
2022-11-29T08:32:26.519Z,37.08
2022-11-29T08:34:53.152Z,36.72
2022-11-29T08:37:20.069Z,33.72
2022-11-29T08:39:46.836Z,31.17
2022-11-29T08:42:13.465Z,31.98
2022-11-29T08:44:40.401Z,29.13
2022-11-29T08:47:25.844Z,27.35
2022-11-29T08:50:01.431Z,26.73
2022-11-29T08:52:51.558Z,28.08
2022-11-29T08:55:20.878Z,28.30
2022-11-29T08:57:48.305Z,28.10
2022-11-29T09:00:15.835Z,27.15
2022-11-29T09:02:42.770Z,25.42
2022-11-29T09:05:10.705Z,24.35
2022-11-29T09:07:38.605Z,25.55
2022-11-29T09:10:08.308Z,20.50
2022-11-29T09:12:39.981Z,20.08
2022-11-29T09:15:09.606Z,20.00
2022-11-29T09:17:36.274Z,16.45
2022-11-29T09:20:03.425Z,17.25
2022-11-29T09:22:30.075Z,15.90
2022-11-29T09:24:57.351Z,14.80
2022-11-29T09:27:23.990Z,14.35
2022-11-29T09:29:50.838Z,13.15
2022-11-29T09:32:17.501Z,13.27
2022-11-29T09:34:44.418Z,12.73
2022-11-29T09:37:11.485Z,12.38
2022-11-29T09:39:38.297Z,11.73
2022-11-29T09:42:28.362Z,11.93
2022-11-29T09:45:02.771Z,10.73
2022-11-29T09:47:41.684Z,11.48
2022-11-29T09:50:23.482Z,10.95
2022-11-29T09:53:02.179Z,11.52
2022-11-29T09:55:47.242Z,10.85
2022-11-29T09:58:21.014Z,11.32
2022-11-29T10:00:51.314Z,12.27
2022-11-29T10:03:27.799Z,11.50
2022-11-29T10:05:59.970Z,12.77
2022-11-29T10:08:36.952Z,14.35
2022-11-29T10:11:22.578Z,13.93
2022-11-29T10:13:55.732Z,14.52
2022-11-29T10:16:36.295Z,15.07
2022-11-29T10:19:15.721Z,15.02
2022-11-29T10:21:45.632Z,15.80
2022-11-29T10:24:17.937Z,15.70
2022-11-29T10:26:44.642Z,16.05
2022-11-29T10:29:15.796Z,14.88
2022-11-29T10:31:49.693Z,14.55
2022-11-29T10:34:19.971Z,14.57
2022-11-29T10:36:49.890Z,15.48
2022-11-29T10:39:37.320Z,14.13
2022-11-29T10:42:07.079Z,13.30
2022-11-29T10:44:34.090Z,12.80
2022-11-29T10:47:10.463Z,12.70
2022-11-29T10:49:37.928Z,12.50
2022-11-29T10:52:05.935Z,11.93
2022-11-29T10:54:40.101Z,12.30
2022-11-29T10:59:57.717Z,11.15
2022-11-29T11:02:24.685Z,10.82
2022-11-29T11:04:51.427Z,11.45
2022-11-29T11:07:25.246Z,11.75
2022-11-29T11:09:56.164Z,11.35
2022-11-29T11:12:27.505Z,10.40
2022-11-29T11:15:13.789Z,10.65
2022-11-29T11:17:42.292Z,9.40
2022-11-29T11:20:24.063Z,11.02
2022-11-29T11:23:06.883Z,10.05
2022-11-29T11:25:36.290Z,9.27
2022-11-29T11:28:17.249Z,9.38
2022-11-29T11:31:01.526Z,9.15
2022-11-29T11:33:36.903Z,9.30
2022-11-29T11:36:05.649Z,9.13
2022-11-29T11:38:37.811Z,9.35
2022-11-29T11:41:19.177Z,8.30
2022-11-29T11:43:59.062Z,8.13
2022-11-29T11:46:52.116Z,8.40
2022-11-29T11:49:49.953Z,7.60
2022-11-29T11:52:27.725Z,10.82
2022-11-29T11:54:58.734Z,8.63
2022-11-29T11:57:26.852Z,9.73
2022-11-29T11:59:56.108Z,9.68
2022-11-29T12:02:35.749Z,7.93
2022-11-29T12:05:06.571Z,7.35
2022-11-29T12:08:06.877Z,8.20
2022-11-29T12:10:32.598Z,8.02
2022-11-29T12:13:00.758Z,8.40
2022-11-29T12:15:27.325Z,8.05
2022-11-29T12:18:06.383Z,8.20
2022-11-29T12:20:40.737Z,7.50
2022-11-29T12:23:27.390Z,8.57
2022-11-29T12:26:19.233Z,8.23
2022-11-29T12:29:00.325Z,8.18
2022-11-29T12:31:44.097Z,8.07
2022-11-29T12:34:34.045Z,8.65
2022-11-29T12:37:14.584Z,7.65
2022-11-29T12:40:06.738Z,8.07
2022-11-29T12:42:49.592Z,7.70
2022-11-29T12:45:46.831Z,9.52
2022-11-29T12:48:45.815Z,8.45
2022-11-29T12:51:46.910Z,9.25
2022-11-29T12:54:47.949Z,7.95
2022-11-29T12:57:44.078Z,8.82
2022-11-29T13:00:14.997Z,9.60
2022-11-29T13:02:49.199Z,11.30
2022-11-29T13:08:01.825Z,8.63
2022-11-29T13:10:58.116Z,8.48
2022-11-29T13:13:40.161Z,8.45
2022-11-29T13:16:35.173Z,8.20
2022-11-29T13:19:24.339Z,8.05
2022-11-29T13:22:14.126Z,8.48
2022-11-29T13:24:52.186Z,8.25
2022-11-29T13:27:25.278Z,8.57
2022-11-29T13:29:53.129Z,8.73
2022-11-29T13:32:51.815Z,8.00
2022-11-29T13:35:22.102Z,8.57
2022-11-29T13:37:55.757Z,8.32
2022-11-29T13:40:31.265Z,8.07
2022-11-29T13:43:10.016Z,7.88
2022-11-29T13:46:10.029Z,8.82
2022-11-29T13:48:47.777Z,8.10
2022-11-29T13:51:25.333Z,8.20
2022-11-29T13:53:53.053Z,8.45
2022-11-29T13:56:27.477Z,8.27
2022-11-29T13:58:54.953Z,7.97
2022-11-29T14:01:23.443Z,7.38
2022-11-29T14:04:03.790Z,8.45
2022-11-29T14:06:40.681Z,8.90
2022-11-29T14:09:25.655Z,10.27
2022-11-29T14:12:19.760Z,9.48
2022-11-29T14:14:55.393Z,8.00
2022-11-29T14:17:30.664Z,7.88
2022-11-29T14:20:23.501Z,7.85
2022-11-29T14:23:05.451Z,7.78
2022-11-29T14:25:51.490Z,8.68
2022-11-29T14:28:21.992Z,7.70
2022-11-29T14:30:50.963Z,8.18
2022-11-29T14:33:38.604Z,8.77
2022-11-29T14:36:26.363Z,8.55
2022-11-29T14:39:20.207Z,8.40
2022-11-29T14:42:18.873Z,7.78
2022-11-29T14:44:51.089Z,8.00
2022-11-29T14:47:29.907Z,8.18
2022-11-29T14:49:59.274Z,7.90
2022-11-29T14:52:35.994Z,8.02
2022-11-29T14:55:14.550Z,8.40
2022-11-29T14:57:50.531Z,8.50
2022-11-29T15:00:35.234Z,9.05
2022-11-29T15:03:06.845Z,9.13
2022-11-29T15:05:38.084Z,9.23
2022-11-29T15:08:35.180Z,10.43
2022-11-29T15:11:27.200Z,9.80
2022-11-29T15:14:07.479Z,10.30
2022-11-29T15:17:25.028Z,11.13
2022-11-29T15:20:13.610Z,11.10
2022-11-29T15:22:43.112Z,13.32
2022-11-29T15:25:19.506Z,12.70
2022-11-29T15:27:53.624Z,11.68
2022-11-29T15:32:47.890Z,14.25
2022-11-29T15:35:19.322Z,15.07
2022-11-29T15:37:49.934Z,14.45
2022-11-29T15:40:19.828Z,16.33
2022-11-29T15:43:02.429Z,17.33
2022-11-29T15:45:34.665Z,15.63
2022-11-29T15:48:25.631Z,16.02
2022-11-29T15:51:01.856Z,15.13
2022-11-29T15:53:53.973Z,16.15
2022-11-29T15:56:48.495Z,16.23
2022-11-29T15:59:29.462Z,16.92
2022-11-29T16:02:00.539Z,16.60
2022-11-29T16:04:27.354Z,16.38
2022-11-29T16:06:55.786Z,18.20
2022-11-29T16:09:51.346Z,18.98
2022-11-29T16:12:18.756Z,22.55
2022-11-29T16:14:52.925Z,26.40
2022-11-29T16:19:48.573Z,21.05
2022-11-29T16:22:26.256Z,17.35
2022-11-29T16:24:55.765Z,18.27
2022-11-29T16:27:23.539Z,20.73
2022-11-29T16:29:55.205Z,19.55
2022-11-29T16:32:29.109Z,21.58
2022-11-29T16:34:57.825Z,20.00
2022-11-29T16:37:29.095Z,19.45
2022-11-29T16:40:00.229Z,21.20
2022-11-29T16:42:29.509Z,21.27
2022-11-29T16:45:04.581Z,20.63
2022-11-29T16:47:46.657Z,19.52
2022-11-29T16:50:17.350Z,19.50
2022-11-29T16:52:44.403Z,18.65
2022-11-29T16:55:13.111Z,18.15
2022-11-29T16:57:44.660Z,16.70
2022-11-29T17:00:32.581Z,18.35
2022-11-29T17:02:59.861Z,18.83
2022-11-29T17:05:27.243Z,19.88
2022-11-29T17:07:54.546Z,16.85
2022-11-29T17:10:25.797Z,16.77
2022-11-29T17:12:52.862Z,17.98
2022-11-29T17:15:19.501Z,17.40
2022-11-29T17:17:46.426Z,16.77
2022-11-29T17:20:13.641Z,16.38
2022-11-29T17:22:41.026Z,16.60
2022-11-29T17:25:08.518Z,17.52
2022-11-29T17:27:36.122Z,17.92
2022-11-29T17:30:03.627Z,17.90
2022-11-29T17:32:30.509Z,19.15
2022-11-29T17:34:57.155Z,18.67
2022-11-29T17:37:23.823Z,19.05
2022-11-29T17:39:50.892Z,17.83
2022-11-29T17:42:17.794Z,17.27
2022-11-29T17:44:44.440Z,18.15
2022-11-29T17:47:11.276Z,19.77
2022-11-29T17:49:37.860Z,21.00
2022-11-29T17:52:04.773Z,29.35
2022-11-29T17:54:33.418Z,33.60
2022-11-29T17:57:00.924Z,35.17
2022-11-29T17:59:27.697Z,31.35
2022-11-29T18:01:54.743Z,33.33
2022-11-29T18:04:21.885Z,32.92
2022-11-29T18:06:50.407Z,30.08
2022-11-29T18:09:18.435Z,30.85
2022-11-29T18:11:49.269Z,34.83
2022-11-29T18:14:28.507Z,31.17
2022-11-29T18:16:55.471Z,29.10
2022-11-29T18:19:25.484Z,28.42
2022-11-29T18:21:52.482Z,28.70
2022-11-29T18:24:19.334Z,27.02
2022-11-29T18:26:46.197Z,23.50
2022-11-29T18:29:12.996Z,23.45
2022-11-29T18:31:44.650Z,23.58
2022-11-29T18:34:13.235Z,26.30
2022-11-29T18:36:45.866Z,29.25
2022-11-29T18:39:20.219Z,38.83
2022-11-29T18:41:49.241Z,45.30
2022-11-29T18:44:17.815Z,33.88
2022-11-29T18:46:45.836Z,33.70
2022-11-29T18:49:14.899Z,28.75
2022-11-29T18:51:46.555Z,29.92
2022-11-29T18:54:15.019Z,32.03
2022-11-29T18:56:42.650Z,32.53
2022-11-29T18:59:16.887Z,33.70
2022-11-29T19:01:46.077Z,31.20
2022-11-29T19:04:15.487Z,28.23
2022-11-29T19:06:42.938Z,26.73
2022-11-29T19:09:23.441Z,27.02
2022-11-29T19:11:50.832Z,24.75
2022-11-29T19:14:18.386Z,21.92
2022-11-29T19:16:46.769Z,22.35
2022-11-29T19:19:13.616Z,24.83
2022-11-29T19:21:41.056Z,28.98
2022-11-29T19:24:14.311Z,28.70
2022-11-29T19:26:44.479Z,26.75
2022-11-29T19:29:11.510Z,23.48
2022-11-29T19:31:39.371Z,24.65
2022-11-29T19:34:06.493Z,25.48
2022-11-29T19:36:33.113Z,23.65
2022-11-29T19:39:01.761Z,22.60
2022-11-29T19:41:31.593Z,24.33
2022-11-29T19:44:00.616Z,24.00
2022-11-29T19:46:34.372Z,26.27
2022-11-29T19:49:01.624Z,22.27
2022-11-29T19:51:29.631Z,20.88
2022-11-29T19:53:59.296Z,23.08
2022-11-29T19:56:26.564Z,21.67
2022-11-29T19:58:53.232Z,23.17
2022-11-29T20:01:25.480Z,22.25
2022-11-29T20:03:52.986Z,19.92
2022-11-29T20:06:19.634Z,22.10
2022-11-29T20:08:46.693Z,20.70
2022-11-29T20:11:21.842Z,22.13
2022-11-29T20:13:59.805Z,24.73
2022-11-29T20:16:27.876Z,23.02
2022-11-29T20:18:55.243Z,22.98
2022-11-29T20:21:25.978Z,22.83
2022-11-29T20:23:57.358Z,23.55
2022-11-29T20:26:24.904Z,24.45
2022-11-29T20:28:51.616Z,23.52
2022-11-29T20:31:22.880Z,24.58
2022-11-29T20:33:52.026Z,23.13
2022-11-29T20:36:30.832Z,21.42
2022-11-29T20:39:08.448Z,22.58
2022-11-29T20:41:45.651Z,22.23
2022-11-29T20:44:19.797Z,21.40
2022-11-29T20:49:15.277Z,19.35
2022-11-29T20:51:51.798Z,31.85
2022-11-29T20:54:19.705Z,36.67
2022-11-29T20:56:46.592Z,51.72
2022-11-29T20:59:13.415Z,41.65
2022-11-29T21:01:40.047Z,43.92
2022-11-29T21:04:06.839Z,44.45
2022-11-29T21:06:37.662Z,43.88
2022-11-29T21:09:05.049Z,42.22
2022-11-29T21:11:32.269Z,44.05
2022-11-29T21:14:03.441Z,41.47
2022-11-29T21:16:31.674Z,39.80
2022-11-29T21:19:01.456Z,35.35
2022-11-29T21:22:02.064Z,31.35
2022-11-29T21:24:49.741Z,29.10
2022-11-29T21:27:21.087Z,28.80
2022-11-29T21:29:48.016Z,28.17
2022-11-29T21:32:21.915Z,27.55
2022-11-29T21:34:48.990Z,28.40
2022-11-29T21:37:18.333Z,26.40
2022-11-29T21:39:45.657Z,25.38
2022-11-29T21:42:12.257Z,30.40
2022-11-29T21:44:39.061Z,31.42
2022-11-29T21:47:06.249Z,25.08
2022-11-29T21:49:33.149Z,26.38
2022-11-29T21:52:02.914Z,28.33
2022-11-29T21:54:30.152Z,25.38
2022-11-29T21:56:56.886Z,28.30
2022-11-29T21:59:24.953Z,26.08
2022-11-29T22:01:52.735Z,23.20
2022-11-29T22:04:19.915Z,25.70
2022-11-29T22:06:47.688Z,25.38
2022-11-29T22:09:14.802Z,28.10
2022-11-29T22:11:41.670Z,23.73
2022-11-29T22:14:13.593Z,25.55
2022-11-29T22:16:44.114Z,25.88
2022-11-29T22:19:15.067Z,23.80
2022-11-29T22:21:43.646Z,24.65
2022-11-29T22:24:11.789Z,23.63
2022-11-29T22:26:38.885Z,24.73
2022-11-29T22:29:06.140Z,24.30
2022-11-29T22:31:33.038Z,42.30
2022-11-29T22:33:59.625Z,23.27
2022-11-29T22:36:26.468Z,24.33
2022-11-29T22:38:53.338Z,22.98
2022-11-29T22:41:20.770Z,25.20
2022-11-29T22:43:47.431Z,26.13
2022-11-29T22:46:22.835Z,25.60
2022-11-29T22:48:52.507Z,25.55
2022-11-29T22:51:22.263Z,26.17
2022-11-29T22:53:54.842Z,32.35
2022-11-29T22:56:23.337Z,31.55
2022-11-29T22:58:50.368Z,25.98
2022-11-29T23:01:19.729Z,27.42
2022-11-29T23:03:49.271Z,24.73
2022-11-29T23:06:18.591Z,28.25
2022-11-29T23:08:46.903Z,25.55
2022-11-29T23:11:22.761Z,25.30
2022-11-29T23:13:50.149Z,26.98
2022-11-29T23:16:19.174Z,27.83
2022-11-29T23:18:46.475Z,26.05
2022-11-29T23:21:35.276Z,25.23
2022-11-29T23:24:02.357Z,25.25
2022-11-29T23:26:37.762Z,26.23
2022-11-29T23:29:10.842Z,26.15
2022-11-29T23:31:37.877Z,24.27
2022-11-29T23:34:05.484Z,22.95
2022-11-29T23:36:32.232Z,22.45
2022-11-29T23:38:58.953Z,24.13
2022-11-29T23:41:25.617Z,23.42
2022-11-29T23:43:52.487Z,21.25
2022-11-29T23:46:21.661Z,22.25
2022-11-29T23:48:49.254Z,21.20
2022-11-29T23:51:16.800Z,26.48
2022-11-29T23:53:44.130Z,22.58
2022-11-29T23:56:15.126Z,21.25
2022-11-29T23:58:43.078Z,21.40
